Time;durP1;ratioP1;P1;durP2;ratioP2;P2;SDS_P1;SDS_P2;PMS_P1;PMS_P2;Temp;Humidity;BMP_temperature;BMP_pressure;BME280_temperature;BME280_humidity;BME280_pressure;Samples;Min_cycle;Max_cycle;Signal;HPM_P1;HPM_P2
2023/05/28 00:01:03;;;;;;;7.45;4.40;;;;;;;23.59;39.35;100446.09;5074391;28;20076;-66
2023/05/28 00:03:35;;;;;;;9.10;4.78;;;;;;;23.58;39.47;100440.81;5074236;28;20525;-66
2023/05/28 00:06:04;;;;;;;7.18;4.38;;;;;;;23.57;39.46;100439.13;5074459;28;20044;-66
2023/05/28 00:08:33;;;;;;;10.55;4.80;;;;;;;23.55;39.41;100444.72;5074172;28;20048;-66
2023/05/28 00:11:01;;;;;;;8.13;4.45;;;;;;;23.54;39.42;100442.16;5074268;28;20051;-66
2023/05/28 00:13:29;;;;;;;7.25;4.38;;;;;;;23.52;39.39;100436.03;5074022;28;20743;-65
2023/05/28 00:15:58;;;;;;;9.18;4.72;;;;;;;23.50;39.19;100438.09;5074135;28;20051;-66
2023/05/28 00:18:28;;;;;;;7.43;3.92;;;;;;;23.49;39.21;100430.94;5074221;28;20437;-66
2023/05/28 00:20:58;;;;;;;9.60;4.05;;;;;;;23.46;38.78;100432.16;5074106;28;20476;-66
2023/05/28 00:23:26;;;;;;;8.02;4.13;;;;;;;23.45;38.92;100435.00;5072876;28;20060;-66
2023/05/28 00:25:54;;;;;;;8.77;4.55;;;;;;;23.43;38.77;100438.75;5073951;28;20070;-65
2023/05/28 00:28:22;;;;;;;8.35;4.22;;;;;;;23.41;38.76;100432.66;5074204;28;20067;-66
2023/05/28 00:30:51;;;;;;;9.75;4.32;;;;;;;23.40;38.77;100433.66;5074169;28;20041;-65
2023/05/28 00:33:19;;;;;;;7.93;4.07;;;;;;;23.39;38.85;100431.97;5074011;28;20048;-66
2023/05/28 00:35:47;;;;;;;7.30;4.03;;;;;;;23.37;38.90;100434.03;5073881;28;20044;-66
2023/05/28 00:38:16;;;;;;;10.43;4.63;;;;;;;23.36;38.81;100423.31;5073717;28;20106;-66
2023/05/28 00:40:45;;;;;;;7.63;4.65;;;;;;;23.35;38.84;100419.72;5073932;28;20123;-66
2023/05/28 00:43:13;;;;;;;9.82;4.13;;;;;;;23.35;38.80;100418.84;5073721;28;20045;-66
2023/05/28 00:45:41;;;;;;;10.18;4.32;;;;;;;23.34;38.81;100422.59;5073324;28;20071;-65
2023/05/28 00:48:10;;;;;;;9.90;4.45;;;;;;;23.32;38.73;100414.63;5073430;28;20063;-66
2023/05/28 00:50:39;;;;;;;8.48;4.10;;;;;;;23.32;38.80;100419.22;5073494;28;20045;-65
2023/05/28 00:53:08;;;;;;;9.48;4.05;;;;;;;23.30;38.76;100416.66;5073318;28;20705;-65
2023/05/28 00:55:38;;;;;;;7.40;4.32;;;;;;;23.29;38.89;100414.97;5073629;28;20098;-65
2023/05/28 00:58:07;;;;;;;7.13;4.05;;;;;;;23.29;38.74;100414.13;5073370;28;20512;-65
2023/05/28 01:00:37;;;;;;;7.20;4.10;;;;;;;23.27;38.60;100405.28;5073452;28;20048;-65
2023/05/28 01:03:05;;;;;;;7.53;4.15;;;;;;;23.25;38.66;100402.69;5073415;28;20045;-65
2023/05/28 01:05:34;;;;;;;7.45;4.07;;;;;;;23.24;38.58;100406.44;5073027;28;20080;-64
2023/05/28 01:08:04;;;;;;;9.13;4.40;;;;;;;23.23;38.69;100404.75;5073173;28;20143;-65
2023/05/28 01:10:33;;;;;;;7.50;3.78;;;;;;;23.21;38.68;100406.78;5072954;28;20614;-66
2023/05/28 01:13:06;;;;;;;9.93;4.20;;;;;;;23.21;38.59;100403.22;5073008;28;20056;-66
2023/05/28 01:15:34;;;;;;;;;;;;;;;23.20;38.55;100399.66;5073655;28;20080;-66
2023/05/28 01:18:03;;;;;;;7.65;4.13;;;;;;;23.19;38.21;100397.13;5072915;28;20328;-66
2023/05/28 01:20:32;;;;;;;7.40;4.30;;;;;;;23.17;38.49;100391.84;5072989;28;20139;-65
2023/05/28 01:23:05;;;;;;;8.65;4.18;;;;;;;23.16;38.45;100390.13;5073146;28;20044;-65
2023/05/28 01:25:37;;;;;;;8.57;4.35;;;;;;;23.15;38.61;100393.88;5072902;28;20056;-65
2023/05/28 01:28:13;;;;;;;6.75;3.85;;;;;;;23.13;38.38;100398.63;5072847;28;20052;-65
2023/05/28 01:30:43;;;;;;;8.50;4.28;;;;;;;23.12;38.52;100388.78;5072677;28;20044;-66
2023/05/28 01:33:12;;;;;;;8.05;4.03;;;;;;;23.10;38.37;100383.50;5072742;28;20474;-65
2023/05/28 01:35:43;;;;;;;8.35;4.50;;;;;;;23.10;38.33;100388.09;5073046;28;20056;-65
2023/05/28 01:38:15;;;;;;;7.93;3.90;;;;;;;23.07;38.19;100383.84;5072723;28;20473;-66
2023/05/28 01:40:47;;;;;;;9.52;4.30;;;;;;;23.07;38.30;100388.44;5072688;28;20040;-65
2023/05/28 01:43:15;;;;;;;7.25;4.13;;;;;;;23.04;38.03;100383.31;5072385;28;20055;-65
2023/05/28 01:45:44;;;;;;;7.70;4.07;;;;;;;23.03;38.14;100387.06;5072560;28;20049;-66
2023/05/28 01:48:12;;;;;;;7.18;4.28;;;;;;;23.01;38.19;100389.97;5072559;28;20052;-65
2023/05/28 01:50:41;;;;;;;8.82;4.38;;;;;;;23.01;38.03;100386.38;5072284;28;20041;-65
2023/05/28 01:53:09;;;;;;;6.80;3.67;;;;;;;22.99;38.18;100389.28;5072266;28;20052;-65
2023/05/28 01:55:37;;;;;;;6.85;3.90;;;;;;;22.97;38.35;100383.16;5072148;28;20147;-66
2023/05/28 01:58:08;;;;;;;8.48;3.80;;;;;;;22.97;38.22;100382.28;5071184;28;20056;-64
2023/05/28 02:00:43;;;;;;;7.95;4.10;;;;;;;22.96;38.04;100386.03;5072044;28;20494;-66
2023/05/28 02:03:11;;;;;;;9.45;4.22;;;;;;;22.95;38.37;100385.19;5072261;28;20044;-65
2023/05/28 02:05:40;;;;;;;7.38;4.20;;;;;;;22.94;37.97;100380.78;5072113;28;20048;-65
2023/05/28 02:08:08;;;;;;;8.35;4.28;;;;;;;22.93;38.23;100383.66;5071962;28;20040;-65
2023/05/28 02:10:36;;;;;;;6.50;3.60;;;;;;;22.92;38.21;100379.25;5071880;28;20494;-65
2023/05/28 02:13:06;;;;;;;8.02;4.22;;;;;;;22.90;38.01;100373.13;5071744;28;20135;-65
2023/05/28 02:15:34;;;;;;;6.93;3.72;;;;;;;22.89;38.00;100374.16;5071924;28;20045;-65
2023/05/28 02:18:02;;;;;;;9.30;4.07;;;;;;;22.88;38.06;100372.47;5071861;28;20056;-66
2023/05/28 02:20:31;;;;;;;7.10;3.92;;;;;;;22.88;38.00;100377.91;5071860;28;20102;-65
2023/05/28 02:22:59;;;;;;;7.18;3.60;;;;;;;22.85;38.30;100369.03;5071715;28;20057;-66
2023/05/28 02:25:27;;;;;;;7.63;3.92;;;;;;;22.84;38.04;100372.78;5071865;28;20049;-66
2023/05/28 02:27:55;;;;;;;8.05;4.28;;;;;;;22.83;38.27;100371.03;5071838;28;20136;-65
2023/05/28 02:30:25;;;;;;;7.07;3.97;;;;;;;22.82;38.23;100374.78;5071517;28;20059;-65
2023/05/28 02:32:54;;;;;;;8.10;3.83;;;;;;;22.81;38.02;100373.09;5071666;28;20051;-65
2023/05/28 02:35:23;;;;;;;7.35;3.70;;;;;;;22.79;38.12;100372.41;5071455;28;20485;-65
2023/05/28 02:37:51;;;;;;;6.60;3.65;;;;;;;22.79;38.24;100375.13;5071534;28;20083;-65
2023/05/28 02:40:19;;;;;;;8.82;4.30;;;;;;;22.76;38.30;100369.16;5071637;28;20048;-65
2023/05/28 02:42:47;;;;;;;7.13;3.75;;;;;;;22.75;38.13;100376.47;5071609;28;20090;-65
2023/05/28 02:45:15;;;;;;;7.75;4.00;;;;;;;22.75;38.05;100372.91;5071550;28;20059;-65
2023/05/28 02:47:48;;;;;;;6.88;3.65;;;;;;;22.74;38.12;100379.34;5071481;28;20371;-65
2023/05/28 02:50:16;;;;;;;7.28;3.70;;;;;;;22.73;38.17;100375.78;5071220;28;20048;-65
2023/05/28 02:52:44;;;;;;;8.25;4.40;;;;;;;22.71;38.13;100377.84;5071326;28;20067;-65
2023/05/28 02:55:12;;;;;;;6.40;3.53;;;;;;;22.71;38.20;100371.53;5071521;28;20079;-65
2023/05/28 02:57:40;;;;;;;7.97;4.00;;;;;;;22.69;38.21;100374.44;5071501;28;20084;-64
2023/05/28 03:00:10;;;;;;;6.28;3.47;;;;;;;22.68;38.46;100371.84;5071307;28;20051;-65
2023/05/28 03:02:38;;;;;;;7.65;4.13;;;;;;;22.66;38.33;100369.31;5071112;28;20053;-66
2023/05/28 03:05:08;;;;;;;8.98;3.97;;;;;;;22.65;38.33;100362.19;5071061;28;20498;-66
2023/05/28 03:07:36;;;;;;;6.63;3.53;;;;;;;22.64;38.16;100371.34;5071555;28;20084;-66
2023/05/28 03:10:06;;;;;;;6.93;3.90;;;;;;;22.62;38.35;100367.97;5071109;28;20115;-66
2023/05/28 03:12:36;;;;;;;9.02;3.92;;;;;;;22.60;38.53;100372.72;5071007;28;20139;-64
2023/05/28 03:15:04;;;;;;;7.70;3.85;;;;;;;22.60;38.28;100375.44;5071068;28;20489;-64
2023/05/28 03:17:33;;;;;;;5.57;3.45;;;;;;;22.59;38.17;100371.03;5071097;28;20479;-64
2023/05/28 03:20:01;;;;;;;6.82;3.38;;;;;;;22.59;38.59;100370.19;5071397;28;20465;-65
2023/05/28 03:22:30;;;;;;;7.45;3.67;;;;;;;22.57;38.45;100370.31;5071221;28;20098;-64
2023/05/28 03:25:01;;;;;;;8.23;3.88;;;;;;;22.56;38.32;100365.91;5071024;28;20045;-64
2023/05/28 03:27:30;;;;;;;6.18;3.50;;;;;;;22.55;38.35;100372.34;5071027;28;20051;-65
2023/05/28 03:29:58;;;;;;;7.38;4.15;;;;;;;22.54;38.51;100370.66;5070781;28;20048;-65
2023/05/28 03:32:26;;;;;;;8.40;3.75;;;;;;;22.53;38.54;100366.25;5071069;28;20044;-66
2023/05/28 03:34:56;;;;;;;7.57;3.60;;;;;;;22.51;38.54;100360.97;5071124;28;20102;-66
2023/05/28 03:37:26;;;;;;;7.22;3.65;;;;;;;22.51;38.44;100366.41;5070930;28;20052;-65
2023/05/28 03:39:56;;;;;;;7.68;3.53;;;;;;;22.51;38.61;100371.00;5070887;28;20048;-66
2023/05/28 03:42:24;;;;;;;6.13;3.55;;;;;;;22.49;38.43;100367.59;5070778;28;20612;-66
2023/05/28 03:44:52;;;;;;;7.78;3.90;;;;;;;22.48;38.64;100368.59;5070558;28;20052;-65
2023/05/28 03:47:21;;;;;;;7.50;3.83;;;;;;;22.47;38.77;100370.47;5070864;28;20040;-65
2023/05/28 03:49:50;;;;;;;6.88;3.60;;;;;;;22.47;38.70;100369.63;5070945;28;20045;-66
2023/05/28 03:52:18;;;;;;;7.13;3.40;;;;;;;22.46;38.92;100370.63;5070741;28;20117;-65
2023/05/28 03:54:46;;;;;;;7.63;3.80;;;;;;;22.46;38.74;100362.47;5070843;28;20127;-66
2023/05/28 03:57:16;;;;;;;6.60;3.80;;;;;;;22.45;38.90;100363.50;5070568;28;20048;-65
2023/05/28 03:59:44;;;;;;;8.38;4.05;;;;;;;22.45;38.78;100371.66;5070937;28;20048;-65
2023/05/28 04:02:12;;;;;;;6.82;3.72;;;;;;;22.43;38.78;100365.53;5070799;28;20048;-66
2023/05/28 04:04:40;;;;;;;7.70;3.60;;;;;;;22.43;38.84;100370.97;5070627;28;20052;-65
2023/05/28 04:07:08;;;;;;;6.90;3.75;;;;;;;22.43;38.90;100368.25;5070708;28;20053;-65
2023/05/28 04:09:37;;;;;;;8.40;4.18;;;;;;;22.43;38.82;100373.69;5102838;28;20046;-65
2023/05/28 04:12:06;;;;;;;7.80;3.80;;;;;;;22.42;38.99;100361.97;5070625;28;20056;-65
2023/05/28 04:14:35;;;;;;;7.97;3.85;;;;;;;22.42;39.14;100361.97;5070731;28;20070;-65
2023/05/28 04:17:04;;;;;;;7.10;3.80;;;;;;;22.41;38.93;100370.28;5070530;28;20079;-65
2023/05/28 04:19:32;;;;;;;8.18;4.05;;;;;;;22.41;39.21;100375.72;5070637;28;20051;-66
2023/05/28 04:22:00;;;;;;;7.57;3.55;;;;;;;22.41;39.26;100371.16;5072375;28;20048;-65
2023/05/28 04:24:28;;;;;;;7.88;4.38;;;;;;;22.39;39.09;100366.88;5074090;28;20083;-65
2023/05/28 04:26:56;;;;;;;11.10;4.90;;;;;;;22.39;38.86;100366.88;5074221;28;20048;-65
2023/05/28 04:29:28;;;;;;;10.38;4.70;;;;;;;22.39;39.06;100372.31;5074078;28;20048;-65
2023/05/28 04:31:58;;;;;;;8.85;4.40;;;;;;;22.37;39.08;100374.34;5073888;28;20478;-65
2023/05/28 04:34:27;;;;;;;9.73;4.68;;;;;;;22.38;39.20;100378.75;5073836;28;20051;-64
2023/05/28 04:36:56;;;;;;;9.95;4.88;;;;;;;22.37;38.95;100375.19;5073716;28;20059;-65
2023/05/28 04:39:26;;;;;;;9.10;4.78;;;;;;;22.37;38.88;100386.06;5073910;28;20178;-64
2023/05/28 04:41:54;;;;;;;10.68;4.70;;;;;;;22.36;38.94;100378.06;5073606;28;20040;-65
2023/05/28 04:44:25;;;;;;;10.25;4.47;;;;;;;22.37;39.15;100377.06;5073763;28;20083;-64
2023/05/28 04:46:54;;;;;;;10.13;4.78;;;;;;;22.36;38.77;100378.06;5073509;28;20401;-65
2023/05/28 04:49:23;;;;;;;8.73;4.25;;;;;;;22.35;38.61;100379.09;5073483;28;20502;-65
2023/05/28 04:51:51;;;;;;;9.93;4.13;;;;;;;22.33;38.47;100379.28;5073825;28;20131;-65
2023/05/28 04:54:20;;;;;;;7.68;4.07;;;;;;;22.31;38.46;100392.19;5073666;28;20086;-65
2023/05/28 04:56:49;;;;;;;9.68;4.03;;;;;;;22.30;38.23;100373.31;5073578;28;20050;-64
2023/05/28 04:59:17;;;;;;;6.68;3.63;;;;;;;22.27;38.38;100383.47;5073496;28;20143;-65
2023/05/28 05:01:45;;;;;;;8.02;3.72;;;;;;;22.27;38.07;100386.19;5073374;28;20044;-65
2023/05/28 05:04:13;;;;;;;7.80;4.05;;;;;;;22.27;38.33;100386.19;5073798;28;20052;-64
2023/05/28 05:06:43;;;;;;;7.97;3.60;;;;;;;22.26;38.54;100373.63;5073482;28;20049;-64
2023/05/28 05:09:11;;;;;;;9.00;3.92;;;;;;;22.26;38.68;100383.66;5073315;28;20079;-64
2023/05/28 05:11:40;;;;;;;6.97;3.50;;;;;;;22.26;38.73;100383.66;5073141;28;20121;-65
2023/05/28 05:14:08;;;;;;;6.93;3.60;;;;;;;22.24;38.74;100389.25;5073110;28;20132;-64
2023/05/28 05:16:36;;;;;;;7.30;3.40;;;;;;;22.25;38.94;100377.38;5073026;28;20143;-64
2023/05/28 05:19:04;;;;;;;8.82;3.78;;;;;;;22.26;39.14;100378.22;5073195;28;20076;-65
2023/05/28 05:21:33;;;;;;;7.75;4.03;;;;;;;22.25;39.09;100382.81;5073073;28;20120;-65
2023/05/28 05:24:02;;;;;;;6.95;3.50;;;;;;;22.26;39.03;100383.66;5073047;28;20060;-64
2023/05/28 05:26:30;;;;;;;8.30;3.60;;;;;;;22.26;38.92;100383.66;5072793;28;20048;-63
2023/05/28 05:28:58;;;;;;;7.75;3.85;;;;;;;22.26;39.15;100387.22;5072678;28;20055;-65
2023/05/28 05:31:27;;;;;;;6.63;3.38;;;;;;;22.26;39.33;100381.78;5072646;28;20507;-63
2023/05/28 05:33:55;;;;;;;8.00;3.55;;;;;;;22.26;38.89;100384.50;5072821;28;20052;-64
2023/05/28 05:36:23;;;;;;;8.00;3.17;;;;;;;22.26;39.13;100378.22;5072790;28;20045;-64
2023/05/28 05:38:54;;;;;;;7.85;3.30;;;;;;;22.25;39.13;100382.81;5072797;28;20063;-65
2023/05/28 05:41:23;;;;;;;8.98;3.35;;;;;;;22.25;39.28;100371.94;5072547;28;20040;-65
2023/05/28 05:43:51;;;;;;;7.85;3.40;;;;;;;22.26;39.28;100370.91;5072540;28;20436;-66
2023/05/28 05:46:20;;;;;;;7.82;3.30;;;;;;;22.26;39.21;100365.47;5072617;28;20058;-66
2023/05/28 05:48:49;;;;;;;9.50;4.00;;;;;;;22.25;39.21;100371.94;5072648;28;20048;-66
2023/05/28 05:51:18;;;;;;;7.50;3.60;;;;;;;22.25;38.98;100366.50;5072456;28;20052;-66
2023/05/28 05:53:46;;;;;;;7.88;3.47;;;;;;;22.25;38.89;100371.09;5072334;28;20095;-65
2023/05/28 05:56:15;;;;;;;9.02;3.35;;;;;;;22.24;39.22;100370.25;5072241;28;20049;-64
2023/05/28 05:58:45;;;;;;;7.18;3.30;;;;;;;22.25;39.21;100374.66;5072230;28;20076;-64
2023/05/28 06:01:17;;;;;;;7.93;3.67;;;;;;;22.25;39.10;100371.94;5072226;28;20056;-64
2023/05/28 06:03:45;;;;;;;7.93;3.30;;;;;;;22.25;39.35;100374.66;5072420;28;20055;-64
2023/05/28 06:06:14;;;;;;;9.02;3.60;;;;;;;22.25;39.44;100388.25;5072010;28;20516;-65
2023/05/28 06:08:42;;;;;;;7.15;3.75;;;;;;;22.26;39.40;100383.66;5071932;28;20456;-64
2023/05/28 06:11:10;;;;;;;8.18;3.53;;;;;;;22.27;39.35;100388.91;5072145;28;20693;-66
2023/05/28 06:13:38;;;;;;;7.90;3.47;;;;;;;22.26;39.49;100384.50;5071857;28;20052;-64
2023/05/28 06:16:08;;;;;;;6.60;3.53;;;;;;;22.26;39.64;100384.50;5072054;28;20048;-65
2023/05/28 06:18:36;;;;;;;6.40;3.20;;;;;;;22.27;39.52;100375.34;5071787;28;20048;-65
2023/05/28 06:21:07;;;;;;;6.38;3.22;;;;;;;22.28;39.62;100382.47;5071769;28;20446;-65
2023/05/28 06:23:40;;;;;;;9.55;3.72;;;;;;;22.30;39.50;100384.19;5071893;28;20044;-65
2023/05/28 06:26:15;;;;;;;8.57;3.63;;;;;;;22.31;39.77;100388.59;5071908;28;20054;-65
2023/05/28 06:28:43;;;;;;;8.52;3.75;;;;;;;22.30;39.87;100379.59;5072057;28;20044;-66
2023/05/28 06:31:13;;;;;;;9.35;3.75;;;;;;;22.32;39.87;100393.88;5071528;28;20064;-65
2023/05/28 06:33:41;;;;;;;8.52;4.07;;;;;;;22.32;39.61;100393.03;5071688;28;20375;-66
2023/05/28 06:36:10;;;;;;;7.97;3.65;;;;;;;22.32;39.80;100393.03;5071463;28;20053;-65
2023/05/28 06:38:38;;;;;;;9.63;3.70;;;;;;;22.32;39.74;100393.03;5071753;28;20056;-65
2023/05/28 06:41:06;;;;;;;7.57;3.80;;;;;;;22.32;39.76;100393.03;5071621;28;20048;-65
2023/05/28 06:43:35;;;;;;;6.70;3.88;;;;;;;22.31;39.63;100394.03;5071090;28;20412;-66
2023/05/28 06:46:03;;;;;;;7.10;3.92;;;;;;;22.32;39.88;100398.47;5070633;28;20089;-68
2023/05/28 06:48:32;;;;;;;7.90;3.80;;;;;;;22.33;39.87;100397.44;5069049;28;20458;-65
2023/05/28 06:51:01;;;;;;;7.70;3.90;;;;;;;22.33;40.03;100394.72;5071724;28;20045;-62
2023/05/28 06:53:29;;;;;;;6.35;3.50;;;;;;;22.34;40.25;100393.69;5071452;28;20057;-62
2023/05/28 06:55:58;;;;;;;7.55;3.63;;;;;;;22.35;40.23;100389.97;5068769;28;20490;-65
2023/05/28 06:58:26;;;;;;;11.40;4.10;;;;;;;22.36;40.27;100389.78;5071461;28;20522;-65
2023/05/28 07:00:57;;;;;;;8.05;4.22;;;;;;;22.38;40.54;100386.91;5070916;28;20051;-65
2023/05/28 07:03:25;;;;;;;7.82;4.32;;;;;;;22.40;40.92;100384.91;5071165;28;20044;-65
2023/05/28 07:05:55;;;;;;;8.07;3.95;;;;;;;22.41;40.92;100392.88;5071330;28;20052;-65
2023/05/28 07:08:24;;;;;;;7.50;4.00;;;;;;;22.42;41.04;100383.72;5071145;28;20059;-65
2023/05/28 07:10:52;;;;;;;8.10;3.90;;;;;;;22.45;40.76;100382.53;5071363;28;20131;-64
2023/05/28 07:13:20;;;;;;;6.28;3.70;;;;;;;22.46;40.90;100378.78;5071134;28;20136;-65
2023/05/28 07:15:50;;;;;;;7.47;3.85;;;;;;;22.47;41.02;100378.63;5070752;28;20147;-64
2023/05/28 07:18:18;;;;;;;7.07;3.95;;;;;;;22.48;41.11;100384.91;5071384;28;20053;-64
2023/05/28 07:20:46;;;;;;;7.78;3.70;;;;;;;22.49;40.80;100394.78;5070797;28;20485;-64
2023/05/28 07:23:17;;;;;;;6.88;3.92;;;;;;;22.51;40.96;100387.31;5071173;28;20533;-64
2023/05/28 07:25:45;;;;;;;6.55;3.50;;;;;;;22.52;41.10;100389.00;5071204;28;20041;-63
2023/05/28 07:28:13;;;;;;;6.38;3.53;;;;;;;22.53;41.25;100386.13;5070163;28;20044;-66
2023/05/28 07:30:42;;;;;;;7.63;3.67;;;;;;;22.54;41.10;100392.41;5070305;28;20481;-65
2023/05/28 07:33:10;;;;;;;7.15;3.80;;;;;;;22.56;41.02;100387.66;5070757;28;20044;-65
2023/05/28 07:35:38;;;;;;;6.57;3.97;;;;;;;22.56;41.23;100387.66;5070679;28;20036;-64
2023/05/28 07:38:07;;;;;;;6.80;3.63;;;;;;;22.57;41.28;100387.47;5070438;28;20062;-65
2023/05/28 07:40:38;;;;;;;8.38;3.78;;;;;;;22.59;41.11;100378.31;5070359;28;20406;-64
2023/05/28 07:43:06;;;;;;;5.97;3.70;;;;;;;22.60;41.06;100375.44;5070038;28;20051;-64
2023/05/28 07:45:34;;;;;;;8.57;3.47;;;;;;;22.61;41.12;100376.28;5070427;28;20752;-63
2023/05/28 07:48:02;;;;;;;9.07;3.50;;;;;;;22.63;41.21;100383.25;5070387;28;20729;-64
2023/05/28 07:50:30;;;;;;;7.28;3.78;;;;;;;22.64;41.33;100379.50;5070677;28;20119;-64
2023/05/28 07:52:58;;;;;;;6.70;3.15;;;;;;;22.65;41.24;100377.63;5070775;28;20050;-63
2023/05/28 07:55:27;;;;;;;8.07;3.60;;;;;;;22.66;41.00;100377.47;5070363;28;20040;-63
2023/05/28 07:57:58;;;;;;;8.27;3.60;;;;;;;22.67;41.25;100376.44;5074272;28;20051;-68
2023/05/28 08:00:27;;;;;;;7.50;3.78;;;;;;;22.68;41.04;100370.03;5074730;28;20074;-62
2023/05/28 08:02:55;;;;;;;6.32;3.50;;;;;;;22.70;41.25;100376.13;5074511;28;20049;-61
2023/05/28 08:05:24;;;;;;;8.68;4.10;;;;;;;22.73;41.22;100374.94;5074545;28;20067;-65
2023/05/28 08:07:52;;;;;;;7.18;3.65;;;;;;;22.75;41.23;100373.75;5071866;28;20054;-62
2023/05/28 08:10:20;;;;;;;6.68;4.00;;;;;;;22.75;41.22;100368.31;5063582;28;20048;-62
2023/05/28 08:12:48;;;;;;;7.95;3.88;;;;;;;22.78;41.42;100367.16;5070715;28;20669;-61
2023/05/28 08:15:18;;;;;;;7.25;3.85;;;;;;;22.79;41.37;100369.69;5074368;28;20055;-63
2023/05/28 08:17:46;;;;;;;17.52;5.95;;;;;;;22.80;41.30;100371.38;5073597;28;20047;-63
2023/05/28 08:20:15;;;;;;;13.30;4.65;;;;;;;22.82;41.41;100374.78;5073502;28;20041;-65
2023/05/28 08:22:45;;;;;;;9.95;4.47;;;;;;;22.84;41.61;100372.78;5073167;28;20055;-63
2023/05/28 08:25:13;;;;;;;12.52;4.78;;;;;;;22.85;41.59;100369.03;5073460;28;20561;-64
2023/05/28 08:27:42;;;;;;;11.30;4.32;;;;;;;22.87;41.31;100362.56;5073924;28;20056;-63
2023/05/28 08:30:16;;;;;;;9.00;4.05;;;;;;;22.87;41.54;100354.41;5073505;28;20048;-62
2023/05/28 08:32:45;;;;;;;9.13;4.22;;;;;;;22.88;41.50;100356.13;5073275;28;20082;-63
2023/05/28 08:35:14;;;;;;;7.55;3.85;;;;;;;22.89;41.57;100352.41;5073616;28;20052;-65
2023/05/28 08:37:42;;;;;;;7.88;3.55;;;;;;;22.91;41.35;100355.78;5073658;28;20045;-60
2023/05/28 08:40:14;;;;;;;8.20;3.80;;;;;;;22.90;41.41;100354.94;5073527;28;20061;-60
2023/05/28 08:42:42;;;;;;;7.97;3.67;;;;;;;22.93;41.53;100360.03;5073370;28;20049;-60
2023/05/28 08:45:11;;;;;;;8.57;4.18;;;;;;;22.94;41.52;100361.72;5073035;28;20497;-61
2023/05/28 08:47:40;;;;;;;7.47;3.88;;;;;;;22.96;41.65;100353.41;5073121;28;20040;-63
2023/05/28 08:50:15;;;;;;;60.28;25.60;;;;;;;22.97;41.67;100349.66;5073372;28;20055;-64
2023/05/28 08:52:45;;;;;;;68.68;27.92;;;;;;;22.98;41.52;100346.78;5073093;28;20083;-64
2023/05/28 08:55:15;;;;;;;64.93;26.95;;;;;;;23.01;41.65;100345.59;5073345;28;20050;-63
2023/05/28 08:57:45;;;;;;;66.72;25.70;;;;;;;23.02;41.75;100336.41;5073113;28;20094;-65
2023/05/28 09:00:15;;;;;;;68.57;27.73;;;;;;;23.04;41.86;100337.06;5072835;28;20135;-64
2023/05/28 09:02:43;;;;;;;64.93;26.23;;;;;;;23.05;41.79;100336.06;5073185;28;20052;-64
2023/05/28 09:05:13;;;;;;;55.55;23.70;;;;;;;23.07;41.79;100334.03;5072954;28;20556;-66
2023/05/28 09:07:41;;;;;;;46.45;19.20;;;;;;;23.07;41.86;100328.59;5072287;28;20434;-64
2023/05/28 09:10:12;;;;;;;39.30;16.33;;;;;;;23.09;42.00;100337.44;5072996;28;20044;-64
2023/05/28 09:12:41;;;;;;;41.70;16.63;;;;;;;23.11;42.07;100335.38;5072195;28;20054;-64
2023/05/28 09:15:10;;;;;;;37.38;16.08;;;;;;;23.13;42.19;100333.34;5073041;28;20052;-64
2023/05/28 09:17:39;;;;;;;34.22;15.13;;;;;;;23.15;41.76;100331.28;5072865;28;20106;-63
2023/05/28 09:20:13;;;;;;;32.38;13.43;;;;;;;23.18;42.08;100333.69;5072751;28;20593;-64
2023/05/28 09:22:43;;;;;;;30.42;13.23;;;;;;;23.18;42.12;100325.53;5072344;28;20382;-66
2023/05/28 09:25:11;;;;;;;24.67;10.57;;;;;;;23.20;42.00;100322.63;5072881;28;20048;-65
2023/05/28 09:27:40;;;;;;;25.67;10.48;;;;;;;23.21;42.03;100322.44;5073252;28;20094;-64
2023/05/28 09:30:09;;;;;;;24.90;11.27;;;;;;;23.24;41.86;100323.97;5072242;28;20455;-64
2023/05/28 09:32:38;;;;;;;22.52;9.95;;;;;;;23.25;42.00;100312.91;5072037;28;20094;-63
2023/05/28 09:35:08;;;;;;;22.67;10.30;;;;;;;23.26;42.07;100309.19;5071842;28;20055;-63
2023/05/28 09:37:37;;;;;;;20.17;9.70;;;;;;;23.28;42.09;100320.75;5072067;28;20087;-64
2023/05/28 09:40:09;;;;;;;19.77;8.95;;;;;;;23.30;42.29;100318.69;5069553;28;20052;-63
2023/05/28 09:42:42;;;;;;;15.50;7.55;;;;;;;23.32;42.21;100316.63;5071680;28;20048;-63
2023/05/28 09:45:11;;;;;;;17.27;8.50;;;;;;;23.34;42.14;100309.16;5072002;28;20044;-62
2023/05/28 09:47:43;;;;;;;20.13;7.90;;;;;;;23.36;42.29;100309.84;5072434;28;20040;-63
2023/05/28 09:50:12;;;;;;;16.07;7.93;;;;;;;23.37;42.36;100300.66;5069356;28;20547;-63
2023/05/28 09:52:44;;;;;;;18.15;7.47;;;;;;;23.40;42.37;100307.63;5071158;28;20166;-64
2023/05/28 09:55:15;;;;;;;17.38;8.10;;;;;;;23.42;42.05;100306.41;5063192;28;20544;-61
2023/05/28 09:57:47;;;;;;;14.07;6.20;;;;;;;23.45;42.37;100293.47;5052275;28;20045;-67
2023/05/28 10:00:23;;;;;;;13.30;6.53;;;;;;;23.48;42.39;100298.59;5052018;28;20055;-66
2023/05/28 10:03:00;;;;;;;16.00;6.72;;;;;;;23.50;42.60;100301.97;5057974;28;20049;-67
2023/05/28 10:05:33;;;;;;;12.63;6.35;;;;;;;23.52;42.67;100297.19;5072288;28;20127;-66
2023/05/28 10:08:05;;;;;;;11.93;6.07;;;;;;;23.54;42.77;100297.88;5072162;28;20487;-66
2023/05/28 10:10:35;;;;;;;11.70;6.28;;;;;;;23.55;42.91;100297.72;5071888;28;20056;-67
2023/05/28 10:13:03;;;;;;;11.98;6.18;;;;;;;23.58;43.18;100297.34;5071803;28;20528;-66
2023/05/28 10:15:32;;;;;;;11.98;5.75;;;;;;;23.61;43.26;100293.47;5071272;28;20052;-69
2023/05/28 10:18:01;;;;;;;13.00;6.20;;;;;;;23.63;43.27;100291.41;5069295;28;20071;-64
2023/05/28 10:20:30;;;;;;;11.88;5.95;;;;;;;23.65;43.25;100289.38;5070755;28;20071;-65
2023/05/28 10:22:59;;;;;;;12.43;5.82;;;;;;;23.66;43.28;100280.19;5071313;28;20040;-68
2023/05/28 10:25:32;;;;;;;10.85;5.68;;;;;;;23.69;43.14;100274.38;5071171;28;20079;-68
2023/05/28 10:28:02;;;;;;;9.77;4.85;;;;;;;23.70;43.16;100276.91;5071166;28;20083;-69
2023/05/28 10:30:35;;;;;;;11.52;4.65;;;;;;;23.73;43.09;100281.16;5071426;28;20191;-67
2023/05/28 10:33:06;;;;;;;10.35;5.07;;;;;;;23.76;43.10;100280.81;5071154;28;20124;-67
2023/05/28 10:35:36;;;;;;;13.68;5.00;;;;;;;23.79;43.06;100274.16;5069610;28;20040;-68
2023/05/28 10:38:10;;;;;;;10.13;5.07;;;;;;;23.81;42.94;100263.94;5071381;28;20044;-67
2023/05/28 10:40:40;;;;;;;9.50;5.15;;;;;;;23.83;42.79;100270.03;5071209;28;20048;-68
2023/05/28 10:43:45;;;;;;;10.75;5.00;;;;;;;23.86;42.81;100265.13;5070907;28;20044;-68
2023/05/28 10:46:17;;;;;;;8.63;4.88;;;;;;;23.88;42.82;100273.94;5070601;28;20040;-68
2023/05/28 10:49:09;;;;;;;12.20;5.00;;;;;;;23.90;42.87;100271.88;5071797;28;20575;-68
2023/05/28 10:51:56;;;;;;;8.85;4.90;;;;;;;23.93;42.73;100260.66;5071655;28;20048;-68
2023/05/28 10:54:40;;;;;;;10.52;4.35;;;;;;;23.96;42.63;100271.19;5071514;28;20098;-64
2023/05/28 10:57:12;;;;;;;9.02;4.80;;;;;;;23.99;42.84;100251.75;5071194;28;20044;-64
2023/05/28 10:59:48;;;;;;;9.57;4.47;;;;;;;24.03;42.68;100262.28;5069556;28;20051;-66
2023/05/28 11:02:24;;;;;;;8.38;4.68;;;;;;;24.06;42.38;100259.22;5071060;28;20128;-66
2023/05/28 11:04:53;;;;;;;9.32;4.50;;;;;;;24.09;42.42;100258.84;5070592;28;20053;-66
2023/05/28 11:07:23;;;;;;;11.73;4.47;;;;;;;24.11;42.52;100251.34;5070663;28;20052;-66
2023/05/28 11:09:52;;;;;;;8.57;4.55;;;;;;;24.14;42.33;100251.84;5069733;28;20052;-68
2023/05/28 11:12:22;;;;;;;10.32;4.50;;;;;;;24.18;42.29;100246.88;5070631;28;20052;-68
2023/05/28 11:14:50;;;;;;;16.92;4.82;;;;;;;24.23;42.05;100244.47;5070870;28;20044;-69
2023/05/28 11:17:19;;;;;;;10.00;3.88;;;;;;;24.28;42.23;100242.03;5070485;28;20501;-67
2023/05/28 11:19:49;;;;;;;8.27;4.47;;;;;;;24.34;42.19;100252.25;5070461;28;20082;-67
2023/05/28 11:22:18;;;;;;;9.00;4.30;;;;;;;24.38;41.94;100239.94;5070646;28;20052;-69
2023/05/28 11:24:52;;;;;;;8.50;4.13;;;;;;;24.41;42.10;100234.13;5070918;28;20056;-69
2023/05/28 11:27:23;;;;;;;10.95;4.30;;;;;;;24.46;41.46;100239.03;5050528;28;20084;-69
2023/05/28 11:29:52;;;;;;;10.38;4.28;;;;;;;24.47;41.54;100224.38;5060618;28;20094;-69
2023/05/28 11:32:21;;;;;;;7.40;4.00;;;;;;;24.49;41.63;100212.25;5074237;28;20045;-67
2023/05/28 11:34:50;;;;;;;8.52;4.30;;;;;;;24.52;41.52;100225.53;5073965;28;20075;-67